Wetterdaten: Woche 15.03.04 - 21.03.04 (KW12)
Datum Zeit Temperatur Luftfeuchte Luftdruck Regenmenge Wind Richtung Taupunkt Windchill
15.03.2004 00:00 1.4 C 96 % 1033.5 hPa 0.0 l/m 0.0 km/h (0 Bft) N 0.8 C 1.4 C
15.03.2004 01:00 1.6 C 98 % 1033.9 hPa 0.0 l/m 0.0 km/h (0 Bft) N 1.3 C 1.6 C
15.03.2004 02:00 2.2 C 100 % 1034.4 hPa 0.0 l/m 0.0 km/h (0 Bft) N 2.2 C 2.2 C
15.03.2004 03:00 2.5 C 100 % 1034.2 hPa 0.0 l/m 0.0 km/h (0 Bft) N 2.5 C 2.5 C
15.03.2004 04:00 2.4 C 100 % 1034.3 hPa 0.0 l/m 0.0 km/h (0 Bft) N 2.4 C 2.4 C
15.03.2004 05:00 2.4 C 100 % 1034.3 hPa 0.0 l/m 0.0 km/h (0 Bft) N 2.4 C 2.4 C
15.03.2004 06:00 2.8 C 100 % 1034.5 hPa 0.0 l/m 0.0 km/h (0 Bft) N 2.8 C 2.8 C
15.03.2004 07:00 2.9 C 100 % 1035.3 hPa 0.0 l/m 0.0 km/h (0 Bft) N 2.9 C 2.9 C
15.03.2004 08:00 3.5 C 100 % 1035.9 hPa 0.0 l/m 0.1 km/h (0 Bft) SO 3.5 C 3.5 C
15.03.2004 09:00 5.0 C 100 % 1036.0 hPa 0.0 l/m 0.8 km/h (0 Bft) SO 5.0 C 4.9 C
15.03.2004 10:00 8.1 C 79 % 1035.6 hPa 0.0 l/m 3.5 km/h (1 Bft) S-SO 4.7 C 7.8 C
15.03.2004 11:00 10.4 C 65 % 1034.8 hPa 0.0 l/m 4.4 km/h (1 Bft) O-SO 4.0 C 10.2 C
15.03.2004 12:00 13.3 C 55 % 1033.8 hPa 0.0 l/m 6.5 km/h (2 Bft) O-SO 4.5 C 13.3 C
15.03.2004 13:00 15.3 C 46 % 1032.6 hPa 0.0 l/m 6.5 km/h (2 Bft) SO 3.8 C 15.3 C
15.03.2004 14:00 16.1 C 46 % 1031.6 hPa 0.0 l/m 9.2 km/h (2 Bft) SO 4.3 C 16.1 C
15.03.2004 15:00 16.3 C 44 % 1031.3 hPa 0.0 l/m 8.0 km/h (2 Bft) O-SO 4.1 C 16.3 C
15.03.2004 16:00 16.1 C 46 % 1031.4 hPa 0.0 l/m 5.6 km/h (1 Bft) O-SO 4.3 C 16.1 C
15.03.2004 17:00 15.1 C 48 % 1031.5 hPa 0.0 l/m 1.6 km/h (1 Bft) O-SO 4.2 C 15.1 C
15.03.2004 18:00 12.6 C 57 % 1031.8 hPa 0.0 l/m 3.9 km/h (1 Bft) O-SO 4.3 C 12.6 C
15.03.2004 19:00 10.0 C 69 % 1032.8 hPa 0.0 l/m 3.4 km/h (1 Bft) O-SO 4.5 C 10.0 C
15.03.2004 20:00 8.1 C 76 % 1033.5 hPa 0.0 l/m 0.2 km/h (0 Bft) O-SO 4.2 C 8.1 C
15.03.2004 21:00 6.8 C 82 % 1034.5 hPa 0.0 l/m 0.7 km/h (0 Bft) O-SO 3.9 C 6.7 C
15.03.2004 22:00 5.5 C 88 % 1034.9 hPa 0.0 l/m 0.9 km/h (0 Bft) O-SO 3.7 C 5.3 C
15.03.2004 23:00 4.1 C 91 % 1035.1 hPa 0.0 l/m 0.2 km/h (0 Bft) O-SO 2.8 C 4.1 C
16.03.2004 00:00 3.4 C 94 % 1035.2 hPa 0.0 l/m 0.9 km/h (0 Bft) O-SO 2.4 C 3.2 C
16.03.2004 01:00 2.5 C 95 % 1035.4 hPa 0.0 l/m 0.6 km/h (0 Bft) O-SO 1.7 C 2.4 C
16.03.2004 02:00 2.2 C 96 % 1035.4 hPa 0.0 l/m 0.2 km/h (0 Bft) O-SO 1.7 C 2.2 C
16.03.2004 03:00 1.5 C 97 % 1035.5 hPa 0.0 l/m 0.7 km/h (0 Bft) O-SO 1.0 C 1.3 C
16.03.2004 04:00 0.8 C 97 % 1035.6 hPa 0.0 l/m 0.8 km/h (0 Bft) O-SO 0.4 C 0.8 C
16.03.2004 05:00 0.5 C 98 % 1036.5 hPa 0.0 l/m 0.4 km/h (0 Bft) O-SO 0.2 C 0.5 C
16.03.2004 06:00 0.3 C 98 % 1035.9 hPa 0.0 l/m 1.3 km/h (1 Bft) O-SO 0.0 C 0.1 C
16.03.2004 07:00 0.8 C 99 % 1036.5 hPa 0.0 l/m 0.9 km/h (0 Bft) O-SO 0.7 C 0.8 C
16.03.2004 08:00 2.6 C 100 % 1036.4 hPa 0.0 l/m 0.1 km/h (0 Bft) N 2.6 C 2.6 C
16.03.2004 09:00 5.1 C 86 % 1036.0 hPa 0.0 l/m 0.0 km/h (0 Bft) N 2.9 C 5.1 C
16.03.2004 10:00 8.4 C 69 % 1034.8 hPa 0.0 l/m 0.1 km/h (0 Bft) O-SO 3.1 C 8.4 C
16.03.2004 11:00 12.0 C 55 % 1034.0 hPa 0.0 l/m 1.9 km/h (1 Bft) W 3.2 C 12.0 C
16.03.2004 12:00 14.7 C 47 % 1033.1 hPa 0.0 l/m 2.0 km/h (1 Bft) S-SO 3.4 C 14.7 C
16.03.2004 13:00 16.9 C 45 % 1032.3 hPa 0.0 l/m 5.2 km/h (1 Bft) O-SO 4.9 C 16.9 C
16.03.2004 14:00 17.8 C 40 % 1031.2 hPa 0.0 l/m 4.3 km/h (1 Bft) O-SO 4.1 C 17.8 C
16.03.2004 15:00 18.3 C 37 % 1030.9 hPa 0.0 l/m 2.7 km/h (1 Bft) O-SO 3.3 C 18.3 C
16.03.2004 16:00 18.3 C 37 % 1030.0 hPa 0.0 l/m 2.2 km/h (1 Bft) O-SO 3.5 C 18.3 C
16.03.2004 17:00 17.4 C 42 % 1030.2 hPa 0.0 l/m 2.2 km/h (1 Bft) O-SO 4.2 C 17.4 C
16.03.2004 18:00 14.4 C 53 % 1030.6 hPa 0.0 l/m 0.1 km/h (0 Bft) SO 5.1 C 14.4 C
16.03.2004 19:00 11.5 C 67 % 1031.1 hPa 0.0 l/m 5.7 km/h (1 Bft) O-SO 5.6 C 11.5 C
16.03.2004 20:00 8.7 C 79 % 1032.4 hPa 0.0 l/m 0.0 km/h (0 Bft) N 5.2 C 8.7 C
16.03.2004 21:00 7.2 C 84 % 1032.6 hPa 0.0 l/m 0.0 km/h (0 Bft) N 4.7 C 7.2 C
16.03.2004 22:00 5.9 C 89 % 1032.8 hPa 0.0 l/m 0.0 km/h (0 Bft) N 4.3 C 5.9 C
16.03.2004 23:00 4.9 C 92 % 1032.9 hPa 0.0 l/m 0.0 km/h (0 Bft) N 3.8 C 4.9 C
17.03.2004 00:00 4.2 C 94 % 1033.0 hPa 0.0 l/m 0.6 km/h (0 Bft) O-SO 3.4 C 4.2 C
17.03.2004 01:00 3.3 C 95 % 1033.2 hPa 0.0 l/m 0.6 km/h (0 Bft) O-SO 2.5 C 3.2 C
17.03.2004 02:00 2.5 C 95 % 1033.3 hPa 0.0 l/m 0.2 km/h (0 Bft) N 1.8 C 2.5 C
17.03.2004 03:00 1.8 C 96 % 1033.4 hPa 0.0 l/m 0.0 km/h (0 Bft) N 1.2 C 1.8 C
17.03.2004 04:00 1.1 C 97 % 1033.3 hPa 0.0 l/m 0.0 km/h (0 Bft) O-SO 0.7 C 1.1 C
17.03.2004 05:00 0.7 C 98 % 1033.6 hPa 0.0 l/m 0.2 km/h (0 Bft) N 0.3 C 0.7 C
17.03.2004 06:00 0.5 C 98 % 1033.6 hPa 0.0 l/m 0.0 km/h (0 Bft) N 0.3 C 0.5 C
17.03.2004 07:00 1.0 C 99 % 1033.5 hPa 0.0 l/m 0.3 km/h (0 Bft) O-SO 1.0 C 1.0 C
17.03.2004 08:00 2.9 C 100 % 1033.2 hPa 0.0 l/m 0.0 km/h (0 Bft) N 2.9 C 2.9 C
17.03.2004 09:00 5.5 C 94 % 1032.9 hPa 0.0 l/m 0.3 km/h (0 Bft) O-SO 4.6 C 5.5 C
17.03.2004 10:00 9.8 C 69 % 1032.0 hPa 0.0 l/m 1.8 km/h (1 Bft) O-SO 4.3 C 9.8 C
17.03.2004 11:00 13.6 C 52 % 1030.7 hPa 0.0 l/m 1.2 km/h (1 Bft) SO 4.0 C 13.6 C
17.03.2004 12:00 17.4 C 41 % 1029.7 hPa 0.0 l/m 4.4 km/h (1 Bft) O-SO 4.0 C 17.4 C
17.03.2004 13:00 20.4 C 36 % 1028.6 hPa 0.0 l/m 7.2 km/h (2 Bft) SO 4.8 C 20.4 C
17.03.2004 14:00 22.0 C 34 % 1027.5 hPa 0.0 l/m 4.5 km/h (1 Bft) O-SO 5.5 C 22.0 C
17.03.2004 15:00 22.4 C 30 % 1027.0 hPa 0.0 l/m 6.4 km/h (2 Bft) SO 4.1 C 22.4 C
17.03.2004 16:00 22.0 C 29 % 1026.4 hPa 0.0 l/m 5.9 km/h (2 Bft) SO 3.0 C 22.0 C
17.03.2004 17:00 20.1 C 39 % 1026.7 hPa 0.0 l/m 0.1 km/h (0 Bft) N 5.4 C 20.1 C
17.03.2004 18:00 16.5 C 49 % 1027.2 hPa 0.0 l/m 2.5 km/h (1 Bft) O-SO 5.8 C 16.5 C
17.03.2004 19:00 13.1 C 64 % 1027.6 hPa 0.0 l/m 2.1 km/h (1 Bft) O-SO 6.3 C 13.1 C
17.03.2004 20:00 10.9 C 72 % 1028.9 hPa 0.0 l/m 3.4 km/h (1 Bft) O-SO 6.0 C 10.9 C
17.03.2004 21:00 9.2 C 79 % 1029.2 hPa 0.0 l/m 2.0 km/h (1 Bft) O-SO 5.8 C 9.0 C
17.03.2004 22:00 8.1 C 83 % 1029.4 hPa 0.0 l/m 1.4 km/h (1 Bft) O-SO 5.4 C 8.1 C
17.03.2004 23:00 7.0 C 89 % 1029.5 hPa 0.0 l/m 0.3 km/h (0 Bft) O-SO 5.2 C 7.0 C
18.03.2004 00:00 5.8 C 94 % 1029.7 hPa 0.0 l/m 1.2 km/h (1 Bft) O-SO 4.8 C 5.7 C
18.03.2004 01:00 5.1 C 98 % 1029.8 hPa 0.0 l/m 0.5 km/h (0 Bft) O-SO 4.7 C 5.0 C
18.03.2004 02:00 4.1 C 99 % 1029.0 hPa 0.0 l/m 0.0 km/h (0 Bft) N 4.0 C 4.1 C
18.03.2004 03:00 3.5 C 100 % 1029.0 hPa 0.0 l/m 0.2 km/h (0 Bft) O-SO 3.5 C 3.5 C
18.03.2004 04:00 2.9 C 100 % 1029.1 hPa 0.0 l/m 0.1 km/h (0 Bft) O-SO 2.9 C 2.9 C
18.03.2004 05:00 2.8 C 100 % 1029.0 hPa 0.0 l/m 0.6 km/h (0 Bft) O-SO 2.8 C 2.7 C
18.03.2004 06:00 2.0 C 100 % 1028.4 hPa 0.0 l/m 0.1 km/h (0 Bft) O-SO 2.0 C 2.0 C
18.03.2004 07:00 2.9 C 100 % 1028.5 hPa 0.0 l/m 0.0 km/h (0 Bft) N 2.9 C 2.9 C
18.03.2004 08:00 5.0 C 100 % 1028.2 hPa 0.0 l/m 0.0 km/h (0 Bft) N 5.0 C 5.0 C
18.03.2004 09:00 7.8 C 83 % 1027.3 hPa 0.0 l/m 0.1 km/h (0 Bft) N 5.0 C 7.8 C
18.03.2004 10:00 11.5 C 64 % 1026.7 hPa 0.0 l/m 1.6 km/h (1 Bft) O-SO 4.8 C 11.5 C
18.03.2004 11:00 15.0 C 51 % 1025.3 hPa 0.0 l/m 8.3 km/h (2 Bft) O-SO 5.0 C 15.0 C
18.03.2004 12:00 18.1 C 40 % 1024.1 hPa 0.0 l/m 8.7 km/h (2 Bft) SO 4.4 C 18.1 C
18.03.2004 13:00 20.8 C 33 % 1022.8 hPa 0.0 l/m 10.3 km/h (2 Bft) SO 3.8 C 20.8 C
18.03.2004 14:00 22.5 C 30 % 1021.4 hPa 0.0 l/m 9.0 km/h (2 Bft) SO 4.2 C 22.5 C
18.03.2004 15:00 22.9 C 33 % 1020.7 hPa 0.0 l/m 5.9 km/h (2 Bft) O-SO 5.6 C 22.9 C
18.03.2004 16:00 21.6 C 36 % 1020.3 hPa 0.0 l/m 5.0 km/h (1 Bft) SO 5.9 C 21.6 C
18.03.2004 17:00 19.9 C 42 % 1020.5 hPa 0.0 l/m 1.7 km/h (1 Bft) SO 6.6 C 19.9 C
18.03.2004 18:00 16.9 C 47 % 1021.3 hPa 0.0 l/m 2.3 km/h (1 Bft) SO 5.6 C 16.9 C
18.03.2004 19:00 14.2 C 56 % 1022.3 hPa 0.0 l/m 1.8 km/h (1 Bft) SO 5.6 C 14.2 C
18.03.2004 20:00 12.4 C 64 % 1022.9 hPa 0.0 l/m 5.8 km/h (2 Bft) O-SO 5.8 C 12.4 C
18.03.2004 21:00 11.3 C 66 % 1023.7 hPa 0.0 l/m 3.8 km/h (1 Bft) O-SO 5.2 C 11.3 C
18.03.2004 22:00 9.3 C 75 % 1024.0 hPa 0.0 l/m 0.7 km/h (0 Bft) O-SO 5.0 C 9.2 C
18.03.2004 23:00 8.1 C 81 % 1024.8 hPa 0.0 l/m 0.1 km/h (0 Bft) N 5.0 C 8.1 C
19.03.2004 00:00 7.2 C 83 % 1025.3 hPa 0.0 l/m 0.5 km/h (0 Bft) O-SO 4.6 C 7.2 C
19.03.2004 01:00 6.8 C 87 % 1025.4 hPa 0.0 l/m 0.2 km/h (0 Bft) O-SO 4.7 C 6.8 C
19.03.2004 02:00 6.4 C 89 % 1025.4 hPa 0.0 l/m 0.2 km/h (0 Bft) O-SO 4.7 C 6.4 C
19.03.2004 03:00 6.7 C 88 % 1025.4 hPa 0.0 l/m 5.0 km/h (1 Bft) O-SO 4.8 C 5.8 C
19.03.2004 04:00 6.0 C 88 % 1025.5 hPa 0.0 l/m 2.0 km/h (1 Bft) O-SO 4.2 C 5.8 C
19.03.2004 05:00 6.4 C 90 % 1025.5 hPa 0.0 l/m 4.6 km/h (1 Bft) O-SO 4.9 C 5.7 C
19.03.2004 06:00 6.9 C 83 % 1026.1 hPa 0.0 l/m 8.7 km/h (2 Bft) O-SO 4.2 C 5.3 C
19.03.2004 07:00 7.9 C 75 % 1026.3 hPa 0.0 l/m 7.0 km/h (2 Bft) O-SO 3.8 C 6.8 C
19.03.2004 08:00 10.1 C 68 % 1026.0 hPa 0.0 l/m 1.7 km/h (1 Bft) SO 4.5 C 10.1 C
19.03.2004 09:00 11.9 C 67 % 1025.7 hPa 0.0 l/m 17.7 km/h (3 Bft) W-NW 6.1 C 11.9 C
19.03.2004 10:00 13.0 C 65 % 1025.6 hPa 0.0 l/m 21.5 km/h (4 Bft) NW 6.5 C 13.0 C
19.03.2004 11:00 13.1 C 64 % 1025.4 hPa 0.0 l/m 26.1 km/h (4 Bft) NW 6.4 C 13.1 C
19.03.2004 12:00 13.3 C 61 % 1024.5 hPa 0.0 l/m 16.9 km/h (3 Bft) W-NW 6.0 C 13.3 C
19.03.2004 13:00 14.3 C 54 % 1023.6 hPa 0.0 l/m 22.0 km/h (4 Bft) NW 5.1 C 14.3 C
19.03.2004 14:00 14.8 C 51 % 1022.0 hPa 0.0 l/m 20.6 km/h (4 Bft) W-NW 4.8 C 14.8 C
19.03.2004 15:00 15.5 C 48 % 1021.1 hPa 0.0 l/m 21.3 km/h (4 Bft) W-NW 4.4 C 15.5 C
19.03.2004 16:00 15.6 C 46 % 1020.1 hPa 0.0 l/m 25.8 km/h (4 Bft) NW 4.0 C 15.6 C
19.03.2004 17:00 14.6 C 49 % 1020.1 hPa 0.0 l/m 28.9 km/h (5 Bft) NW 4.0 C 14.6 C
19.03.2004 18:00 13.4 C 56 % 1020.8 hPa 0.0 l/m 26.9 km/h (4 Bft) NW 4.7 C 13.4 C
19.03.2004 19:00 13.0 C 58 % 1021.4 hPa 0.0 l/m 25.6 km/h (4 Bft) NW 4.8 C 13.0 C
19.03.2004 20:00 12.9 C 58 % 1021.7 hPa 0.0 l/m 20.2 km/h (4 Bft) W-NW 4.9 C 12.9 C
19.03.2004 21:00 13.1 C 58 % 1021.7 hPa 0.0 l/m 17.5 km/h (3 Bft) W-NW 4.9 C 13.1 C
19.03.2004 22:00 12.2 C 61 % 1021.5 hPa 0.0 l/m 1.0 km/h (0 Bft) W-SW 4.9 C 12.2 C
19.03.2004 23:00 10.4 C 75 % 1021.8 hPa 0.3 l/m 4.1 km/h (1 Bft) W 6.2 C 10.3 C
20.03.2004 00:00 10.3 C 84 % 1021.8 hPa 0.0 l/m 12.5 km/h (3 Bft) W 7.8 C 10.1 C
20.03.2004 01:00 10.6 C 81 % 1021.7 hPa 1.0 l/m 23.3 km/h (4 Bft) W-NW 7.5 C 10.5 C
20.03.2004 02:00 9.5 C 94 % 1021.9 hPa 2.0 l/m 5.2 km/h (1 Bft) W-NW 8.6 C 8.9 C
20.03.2004 03:00 9.3 C 98 % 1021.5 hPa 1.4 l/m 4.1 km/h (1 Bft) S-SO 9.0 C 8.9 C
20.03.2004 04:00 9.6 C 96 % 1021.0 hPa 0.3 l/m 12.1 km/h (2 Bft) SW 9.0 C 8.0 C
20.03.2004 05:00 9.8 C 94 % 1021.8 hPa 0.0 l/m 15.1 km/h (3 Bft) SW 8.9 C 7.7 C
20.03.2004 06:00 10.1 C 92 % 1021.8 hPa 0.0 l/m 12.8 km/h (3 Bft) SW 8.8 C 9.5 C
20.03.2004 07:00 10.5 C 88 % 1022.0 hPa 0.3 l/m 11.9 km/h (2 Bft) S 8.6 C 10.5 C
20.03.2004 08:00 10.9 C 84 % 1022.3 hPa 0.0 l/m 11.8 km/h (2 Bft) SO 8.3 C 10.9 C
20.03.2004 09:00 11.8 C 77 % 1021.6 hPa 0.0 l/m 11.0 km/h (2 Bft) W 7.8 C 11.8 C
20.03.2004 10:00 13.0 C 71 % 1021.4 hPa 0.0 l/m 12.5 km/h (3 Bft) W 7.8 C 13.0 C
20.03.2004 11:00 13.4 C 67 % 1021.3 hPa 0.0 l/m 15.1 km/h (3 Bft) W 7.4 C 13.4 C
20.03.2004 12:00 12.7 C 76 % 1021.4 hPa 0.0 l/m 7.2 km/h (2 Bft) S-SO 8.5 C 12.7 C
20.03.2004 13:00 13.3 C 70 % 1020.3 hPa 0.0 l/m 10.3 km/h (2 Bft) S 8.0 C 13.3 C
20.03.2004 14:00 13.4 C 75 % 1020.3 hPa 0.0 l/m 14.1 km/h (3 Bft) W 8.9 C 13.4 C
20.03.2004 15:00 12.8 C 83 % 1019.3 hPa 0.0 l/m 15.2 km/h (3 Bft) SW 9.9 C 12.8 C
20.03.2004 16:00 13.4 C 76 % 1018.8 hPa 0.0 l/m 14.4 km/h (3 Bft) W 9.2 C 13.4 C
20.03.2004 17:00 14.2 C 71 % 1018.1 hPa 0.0 l/m 20.2 km/h (4 Bft) W 8.9 C 14.2 C
20.03.2004 18:00 13.9 C 70 % 1017.3 hPa 0.0 l/m 9.4 km/h (2 Bft) W 8.4 C 13.9 C
20.03.2004 19:00 13.4 C 70 % 1017.2 hPa 0.0 l/m 8.1 km/h (2 Bft) S-SO 8.1 C 13.4 C
20.03.2004 20:00 13.6 C 69 % 1017.0 hPa 0.0 l/m 14.0 km/h (3 Bft) W 8.0 C 13.6 C
20.03.2004 21:00 14.0 C 67 % 1016.1 hPa 0.0 l/m 22.4 km/h (4 Bft) NW 7.9 C 14.0 C
20.03.2004 22:00 14.0 C 69 % 1016.1 hPa 0.0 l/m 30.8 km/h (5 Bft) W-NW 8.5 C 14.0 C
20.03.2004 23:00 13.8 C 70 % 1016.1 hPa 0.0 l/m 28.8 km/h (5 Bft) W-NW 8.4 C 13.8 C
21.03.2004 00:00 13.6 C 68 % 1015.9 hPa 0.0 l/m 32.6 km/h (5 Bft) W-NW 7.7 C 13.6 C
21.03.2004 01:00 12.7 C 70 % 1015.5 hPa 0.0 l/m 37.3 km/h (5 Bft) NW 7.4 C 12.7 C
21.03.2004 02:00 11.9 C 69 % 1015.3 hPa 0.0 l/m 34.2 km/h (5 Bft) NW 6.3 C 11.9 C
21.03.2004 03:00 11.0 C 69 % 1015.2 hPa 0.0 l/m 26.5 km/h (4 Bft) W-NW 5.6 C 11.0 C
21.03.2004 04:00 10.7 C 70 % 1014.4 hPa 0.0 l/m 25.2 km/h (4 Bft) NW 5.3 C 10.7 C
21.03.2004 05:00 10.7 C 68 % 1014.2 hPa 0.0 l/m 22.0 km/h (4 Bft) W-NW 5.1 C 10.7 C
21.03.2004 06:00 9.6 C 72 % 1013.6 hPa 0.0 l/m 3.7 km/h (1 Bft) SW 4.8 C 9.4 C
21.03.2004 07:00 10.4 C 67 % 1013.4 hPa 0.0 l/m 8.1 km/h (2 Bft) SO 4.5 C 10.3 C
21.03.2004 08:00 11.9 C 59 % 1012.5 hPa 0.0 l/m 3.6 km/h (1 Bft) W 4.0 C 11.9 C
21.03.2004 09:00 13.2 C 52 % 1012.4 hPa 0.0 l/m 12.9 km/h (3 Bft) W-NW 3.6 C 13.2 C
21.03.2004 10:00 12.9 C 58 % 1012.5 hPa 0.0 l/m 12.3 km/h (3 Bft) W-NW 4.7 C 12.9 C
21.03.2004 11:00 13.4 C 54 % 1012.0 hPa 0.0 l/m 26.0 km/h (4 Bft) W-NW 4.3 C 13.4 C
21.03.2004 12:00 13.6 C 54 % 1012.0 hPa 0.0 l/m 35.8 km/h (5 Bft) W-NW 4.6 C 13.6 C
21.03.2004 13:00 12.9 C 63 % 1012.1 hPa 0.0 l/m 32.9 km/h (5 Bft) W-NW 6.1 C 12.9 C
21.03.2004 14:00 9.9 C 73 % 1013.5 hPa 0.0 l/m 45.4 km/h (6 Bft) NW 5.4 C 6.8 C
21.03.2004 15:00 8.9 C 78 % 1013.6 hPa 0.3 l/m 43.8 km/h (6 Bft) NW 5.3 C 4.4 C
21.03.2004 16:00 9.3 C 76 % 1012.8 hPa 0.0 l/m 31.0 km/h (5 Bft) NW 5.2 C 5.6 C
21.03.2004 17:00 10.0 C 60 % 1012.5 hPa 0.0 l/m 21.7 km/h (4 Bft) W-NW 2.5 C 8.6 C
21.03.2004 18:00 10.0 C 64 % 1012.5 hPa 0.0 l/m 19.1 km/h (3 Bft) W-NW 3.5 C 8.5 C
21.03.2004 19:00 9.9 C 63 % 1012.5 hPa 0.0 l/m 24.8 km/h (4 Bft) W-NW 3.3 C 7.6 C
21.03.2004 20:00 8.2 C 79 % 1014.0 hPa 0.0 l/m 22.2 km/h (4 Bft) NW 4.6 C 5.1 C
21.03.2004 21:00 7.1 C 82 % 1014.5 hPa 0.0 l/m 6.8 km/h (2 Bft) W-NW 4.3 C 5.9 C
21.03.2004 22:00 5.9 C 87 % 1014.7 hPa 0.0 l/m 1.2 km/h (1 Bft) O-NO 3.9 C 5.8 C
21.03.2004 23:00 5.6 C 92 % 1014.3 hPa 3.0 l/m 5.4 km/h (1 Bft) O-NO 4.4 C 4.7 C
Min-Datum _ 16.03.04 17.03.04 21.03.04 - 15.03.04 - 16.03.04 16.03.04
_ Min-Zeit 06:18 15:57 11:42 - 00:00 - 06:18 06:51
Minimum _ 0.0 C 28 % 1011.9 hPa - 0.0 km/h (0 Bft) - -0.3 C -0.9 C
Max-Datum _ 18.03.04 15.03.04 16.03.04 21.03.04 21.03.04 - 20.03.04 18.03.04
_ Max-Zeit 15:30 01:27 06:24 23:53 14:33 - 15:15 15:30
Maximum _ 23.2 C 100 % 1036.8 hPa 3.0 l/m 62.9 km/h
NW (8 Bft)
- 10.4 C 23.2 C
Durchschnitt _ 10.1 C 73 % 1025.8 hPa #8.8 l/m 8.4 km/h (2 Bft) W-NW 4.7 C 9.9 C

Durchschnitt Minimum Temp.9.1 C
Durchschnitt Maximum Temp.11.0 C
© Kaiko 2004